Aquilla, AL

2:27 AM CDT on May 25, 2015 (GMT -0500)
Key | | Change Station
CLOSE
Current Station
Airport
Location: Meridian,
Elevation: 308 ft
Nearby Weather Stations

Elev 308 ft 32.33 °N, 88.75 °W | Updated 29 minutes ago

Partly Cloudy
Partly Cloudy
74 °F
Feels Like 74 °F
N
9
Wind Variable Wind from SSE

Today
High -- | Low -- °F
--% Chance of Precip.
Yesterday
High -- | Low -- °F
Precip. -- in
5:51 AM 7:49 PM
Waxing Crescent, 46% visible
Pressure 30.07 in
Visibility 10.0 miles
Clouds Scattered Clouds 1100 ft
Scattered Clouds 1600 ft
Mostly Cloudy 2500 ft
Dew Point 71 °F
Humidity 91%
Rainfall 0.00 in
Snow Depth Not available.
UV 0 out of 12
Pollen 6.30 out of 12
Air Quality Not available.
Flu Activity Sporadic
METAR KMEI 250658Z AUTO 16008KT 10SM SCT011 SCT016 BKN025 23/22 A3008 RMK AO2 SLP182 T02330217 $

More Conditions Fewer Conditions

Pressure 30.07 in
Visibility 10.0 miles
Clouds Scattered Clouds 1100 ft
Scattered Clouds 1600 ft
Mostly Cloudy 2500 ft
Dew Point 71 °F
Humidity 91%
Rainfall 0.00 in
Snow Depth Not available.
UV 0 out of 12
Pollen 6.30 out of 12
Air Quality Not available.
Flu Activity Sporadic
METAR KMEI 250658Z AUTO 16008KT 10SM SCT011 SCT016 BKN025 23/22 A3008 RMK AO2 SLP182 T02330217 $

More Conditions Fewer Conditions

10-Day Weather Forecast

Almanac

Astronomy

May. 25, 2015 Rise Set
Actual Time
Civil Twilight
Nautical Twilight
Astronomical Twilight
Moon
Length of Visible Light
Length of Day
Tomorrow will be .
, % of the Moon is Illuminated

Today's Extremes

State Highs State Lows

Community

WunderPhotos

Upload Photos

1,823,959 photos uploaded!

WunderBlogs® & News

Nearby

Air Quality

  Air Quality AQ Index Pollutant
Not available.

Snow Depth

Station Depth Elevation

Earthquake Activity

City Distance Mag. Time & Date
Minimum magnitude displayed is 2.5.

Coastal Water Temperatures

Place Temperature

Stations

Nearby Weather Stations

Station Location Temp. Windchill Dew Point Humidity Wind Precip. Elev Updated Type